CYBW/YBW METAR and TAF weather

Enter ICAO airport designator
Station Type Date Time Source
CYBW METAR 2018/12/13 00:00 UTC NOAA

CYBW 130000Z AUTO 27018G23KT 9SM OVC190 M01/M12 A2977 RMK SLP129


Station Type Date Time Source
CYBW Decoded METAR 2018/12/13 00:00 UTC NOAA

Calgary / Springbank, Canada (CYBW) 51-06N 114-22W
Dec 12, 2018 - 07:00 PM EST / 2018.12.13 0000 UTC
Wind: from the W (270 degrees) at 21 MPH (18 KT) gusting to 26 MPH (23 KT):0
Visibility: 9 mile(s):0
Sky conditions: overcast
Temperature: 30 F (-1 C)
Windchill: 17 F (-8 C):1
Dew Point: 10 F (-12 C)
Relative Humidity: 42%
Pressure (altimeter): 29.77 in. Hg (1008 hPa)
ob: CYBW 130000Z AUTO 27018G23KT 9SM OVC190 M01/M12 A2977 RMK SLP129
cycle: 0

Station Type Date Time Source
CYBW TAF 2018/12/12 18:00 UTC NOAA

TAF CYBW 121739Z 1218/1305 27015G25KT P6SM BKN190
BECMG 1218/1220 27012G22KT
FM122000 27020G30KT P6SM FEW150
BECMG 1223/1301 25010KT
RMK FCST BASED ON AUTO OBS. NXT FCST BY 130000Z


Example: see airport list